Time;durP1;ratioP1;P1;durP2;ratioP2;P2;SDS_P1;SDS_P2;PMS_P1;PMS_P2;Temp;Humidity;BMP_temperature;BMP_pressure;BME280_temperature;BME280_humidity;BME280_pressure;Samples;Min_cycle;Max_cycle;Signal;HPM_P1;HPM_P2
2022/03/20 00:00:07;;;;;;;21.30;16.07;;;4.70;82.70;;;;;;5066938;28;20195;-73
2022/03/20 00:02:33;;;;;;;24.47;18.90;;;4.80;83.20;;;;;;5060891;28;20274;-72
2022/03/20 00:05:02;;;;;;;21.77;17.43;;;4.80;83.10;;;;;;5067960;28;20225;-73
2022/03/20 00:07:29;;;;;;;24.23;18.67;;;4.90;83.20;;;;;;5072233;28;20657;-73
2022/03/20 00:09:54;;;;;;;22.13;17.93;;;4.90;83.50;;;;;;5074624;28;20180;-74
2022/03/20 00:12:20;;;;;;;20.60;16.70;;;4.80;83.70;;;;;;5067123;28;20175;-74
2022/03/20 00:14:46;;;;;;;22.77;17.53;;;4.80;84.40;;;;;;5067864;28;20222;-73
2022/03/20 00:17:13;;;;;;;24.10;17.97;;;4.80;84.60;;;;;;5065427;28;20182;-73
2022/03/20 00:19:39;;;;;;;22.07;16.93;;;4.80;84.60;;;;;;5068063;28;20175;-71
2022/03/20 00:22:06;;;;;;;25.43;17.80;;;4.80;84.60;;;;;;5064161;28;20278;-71
2022/03/20 00:24:32;;;;;;;22.23;17.13;;;4.80;85.00;;;;;;5068856;28;20442;-71
2022/03/20 00:26:58;;;;;;;24.63;17.97;;;4.80;85.10;;;;;;5067291;28;20215;-74
2022/03/20 00:29:28;;;;;;;22.23;17.30;;;4.80;85.30;;;;;;5066889;28;20179;-73
2022/03/20 00:31:54;;;;;;;23.93;18.20;;;4.80;85.70;;;;;;5076158;28;20170;-71
2022/03/20 00:34:20;;;;;;;23.63;18.13;;;4.80;85.50;;;;;;5064353;28;20208;-72
2022/03/20 00:36:45;;;;;;;22.93;18.03;;;4.80;86.10;;;;;;5062733;28;20232;-72
2022/03/20 00:39:11;;;;;;;24.43;18.73;;;4.90;86.30;;;;;;5071068;28;20270;-71
2022/03/20 00:41:37;;;;;;;24.63;19.50;;;4.90;86.10;;;;;;5068367;28;20186;-71
2022/03/20 00:44:02;;;;;;;22.07;17.37;;;4.90;86.30;;;;;;5066768;28;20697;-71
2022/03/20 00:46:28;;;;;;;21.93;17.27;;;4.90;86.40;;;;;;5068796;28;20199;-73
2022/03/20 00:48:54;;;;;;;24.30;19.13;;;4.90;86.30;;;;;;5066548;28;20529;-73
2022/03/20 00:51:20;;;;;;;23.37;18.30;;;4.90;86.70;;;;;;5068157;28;20171;-72
2022/03/20 00:53:46;;;;;;;23.77;17.07;;;4.90;86.80;;;;;;5066239;28;20788;-72
2022/03/20 00:56:15;;;;;;;26.03;19.93;;;4.80;86.90;;;;;;5069573;28;20191;-72
2022/03/20 00:58:40;;;;;;;23.47;17.83;;;4.90;87.20;;;;;;5069547;28;20247;-73
2022/03/20 01:01:08;;;;;;;24.67;18.93;;;4.90;87.10;;;;;;5062372;28;20658;-73
2022/03/20 01:03:33;;;;;;;24.07;18.13;;;4.90;87.50;;;;;;5082885;28;20203;-73
2022/03/20 01:05:59;;;;;;;21.53;17.00;;;4.90;87.10;;;;;;5065892;28;20207;-73
2022/03/20 01:08:25;;;;;;;22.33;18.10;;;4.90;87.50;;;;;;5068031;28;20546;-73
2022/03/20 01:10:50;;;;;;;22.63;17.77;;;4.90;88.20;;;;;;5062160;28;20182;-72
2022/03/20 01:13:16;;;;;;;22.37;17.60;;;4.90;87.70;;;;;;5067272;28;20208;-72
2022/03/20 01:15:42;;;;;;;24.33;19.27;;;4.90;87.80;;;;;;5072145;28;20176;-72
2022/03/20 01:18:08;;;;;;;21.70;18.07;;;5.00;88.00;;;;;;5068605;28;20178;-73
2022/03/20 01:20:34;;;;;;;25.10;18.97;;;4.90;88.30;;;;;;5068141;28;20651;-74
2022/03/20 01:23:00;;;;;;;22.33;17.10;;;4.90;88.60;;;;;;5065787;28;20233;-72
2022/03/20 01:25:26;;;;;;;23.93;19.03;;;4.80;88.50;;;;;;5072746;28;20218;-73
2022/03/20 01:27:51;;;;;;;24.23;19.27;;;4.80;89.90;;;;;;5068814;28;20198;-73
2022/03/20 01:30:17;;;;;;;24.33;19.07;;;4.80;89.60;;;;;;5069460;28;20627;-73
2022/03/20 01:32:43;;;;;;;24.50;19.17;;;4.80;89.80;;;;;;5073618;28;20206;-73
2022/03/20 01:35:09;;;;;;;21.20;17.67;;;4.80;90.00;;;;;;5070219;28;20195;-72
2022/03/20 01:37:36;;;;;;;22.33;17.47;;;4.80;90.20;;;;;;5070104;28;20183;-72
2022/03/20 01:40:03;;;;;;;23.57;18.83;;;4.90;90.00;;;;;;5067197;28;20689;-73
2022/03/20 01:42:29;;;;;;;24.93;19.30;;;4.90;90.20;;;;;;5062900;28;20225;-72
2022/03/20 01:44:55;;;;;;;25.10;19.47;;;4.90;90.30;;;;;;5070608;28;20206;-73
2022/03/20 01:47:21;;;;;;;23.80;19.37;;;4.90;90.40;;;;;;5067162;28;20204;-73
2022/03/20 01:49:47;;;;;;;22.67;18.20;;;4.90;90.60;;;;;;5070106;28;20583;-73
2022/03/20 01:52:14;;;;;;;25.80;19.33;;;4.90;90.60;;;;;;5062579;28;20176;-74
2022/03/20 01:54:45;;;;;;;24.03;19.37;;;4.90;90.70;;;;;;5070314;28;20569;-73
2022/03/20 01:57:20;;;;;;;23.80;19.23;;;4.80;90.90;;;;;;5065619;28;20183;-72
2022/03/20 01:59:47;;;;;;;26.13;21.03;;;4.90;91.10;;;;;;5065276;28;20173;-72
2022/03/20 02:02:13;;;;;;;28.00;19.00;;;4.90;91.10;;;;;;5067123;28;20187;-72
2022/03/20 02:04:39;;;;;;;23.73;18.03;;;4.90;91.30;;;;;;5066952;28;20199;-73
2022/03/20 02:07:06;;;;;;;24.23;18.77;;;4.90;91.30;;;;;;5068067;28;20206;-73
2022/03/20 02:09:34;;;;;;;23.13;19.03;;;4.90;91.40;;;;;;5070587;28;20182;-73
2022/03/20 02:12:00;;;;;;;24.33;19.23;;;4.80;91.50;;;;;;5061306;28;20184;-73
2022/03/20 02:14:26;;;;;;;23.47;18.90;;;4.80;91.60;;;;;;5066691;28;20200;-73
2022/03/20 02:16:53;;;;;;;23.07;19.00;;;4.80;91.70;;;;;;5071895;28;20214;-72
2022/03/20 02:19:19;;;;;;;25.27;19.53;;;4.80;91.90;;;;;;5074740;28;20183;-73
2022/03/20 02:21:48;;;;;;;23.77;19.47;;;4.80;92.10;;;;;;5065198;28;20556;-73
2022/03/20 02:24:41;;;;;;;24.67;21.23;;;4.80;92.30;;;;;;5065751;28;20232;-73
2022/03/20 02:27:20;;;;;;;21.53;18.23;;;4.70;92.60;;;;;;5072030;28;20229;-73
2022/03/20 02:29:56;;;;;;;24.23;19.33;;;4.70;92.80;;;;;;5067402;28;20305;-73
2022/03/20 02:32:28;;;;;;;25.37;18.77;;;4.70;92.90;;;;;;5062709;28;20577;-72
2022/03/20 02:34:55;;;;;;;22.70;17.40;;;4.60;93.10;;;;;;5071934;28;20196;-71
2022/03/20 02:37:23;;;;;;;22.87;19.70;;;4.60;93.30;;;;;;5073449;28;20218;-72
2022/03/20 02:39:50;;;;;;;25.73;19.30;;;4.70;93.50;;;;;;5065479;28;20267;-72
2022/03/20 02:42:16;;;;;;;24.40;19.10;;;4.60;93.60;;;;;;5061589;28;20263;-73
2022/03/20 02:45:05;;;;;;;25.37;19.37;;;4.60;93.80;;;;;;5066682;28;20615;-72
2022/03/20 02:47:43;;;;;;;24.33;18.87;;;4.60;94.20;;;;;;5068494;28;20218;-72
2022/03/20 02:50:12;;;;;;;25.73;20.97;;;4.60;94.20;;;;;;5066500;28;20172;-73
2022/03/20 02:52:59;;;;;;;22.53;18.80;;;4.60;94.30;;;;;;5065675;28;20178;-74
2022/03/20 02:55:26;;;;;;;24.07;19.83;;;4.60;94.40;;;;;;5068073;28;20187;-74
2022/03/20 02:57:53;;;;;;;21.50;18.17;;;4.60;94.60;;;;;;5065119;28;20178;-72
2022/03/20 03:00:22;;;;;;;23.80;18.30;;;4.60;94.60;;;;;;5071380;28;20591;-73
2022/03/20 03:02:50;;;;;;;26.50;19.33;;;4.70;94.80;;;;;;5071290;28;20715;-74
2022/03/20 03:05:18;;;;;;;26.50;18.87;;;4.60;94.80;;;;;;5065469;28;20927;-74
2022/03/20 03:13:16;;;;;;;24.90;19.50;;;4.50;95.40;;;;;;5067677;28;20190;-74
2022/03/20 03:15:42;;;;;;;24.23;19.70;;;4.50;95.60;;;;;;5069493;28;20665;-73
2022/03/20 03:18:09;;;;;;;24.17;19.40;;;4.40;95.90;;;;;;5062458;28;20179;-74
2022/03/20 03:20:35;;;;;;;23.70;19.07;;;4.40;96.10;;;;;;5072279;28;20171;-72
2022/03/20 03:23:02;;;;;;;22.53;18.37;;;4.40;96.50;;;;;;5063808;28;20319;-70
2022/03/20 03:25:27;;;;;;;24.67;19.43;;;4.40;96.70;;;;;;5062366;28;20215;-72
2022/03/20 03:27:53;;;;;;;24.23;19.73;;;4.30;96.80;;;;;;5069092;28;20205;-71
2022/03/20 03:30:20;;;;;;;21.87;17.90;;;4.20;97.00;;;;;;5064383;28;20180;-71
2022/03/20 03:32:45;;;;;;;22.37;18.33;;;4.20;97.40;;;;;;5052600;28;20179;-71
2022/03/20 03:37:58;;;;;;;23.77;18.60;;;4.30;97.60;;;;;;5056583;28;20198;-72
2022/03/20 03:40:24;;;;;;;23.17;18.40;;;4.30;97.70;;;;;;5070142;28;20175;-71
2022/03/20 03:42:49;;;;;;;23.03;18.13;;;4.30;97.80;;;;;;5066918;28;20180;-70
2022/03/20 03:45:15;;;;;;;26.47;19.37;;;4.20;97.90;;;;;;5059865;28;20274;-70
2022/03/20 03:47:41;;;;;;;23.77;19.83;;;4.20;98.20;;;;;;5072606;28;20376;-71
2022/03/20 03:50:08;;;;;;;23.83;19.10;;;4.10;98.50;;;;;;5067722;28;20176;-72
2022/03/20 03:52:33;;;;;;;25.60;19.70;;;4.10;98.70;;;;;;5069182;28;20727;-73
2022/03/20 03:54:59;;;;;;;22.20;18.30;;;4.10;99.00;;;;;;5068284;28;20191;-72
2022/03/20 03:57:25;;;;;;;23.47;18.87;;;4.10;98.90;;;;;;5062326;28;20188;-72
2022/03/20 03:59:50;;;;;;;27.77;19.43;;;4.10;99.20;;;;;;5066844;28;20547;-72
2022/03/20 04:02:16;;;;;;;21.73;17.17;;;4.10;99.20;;;;;;5066300;28;20175;-72
2022/03/20 04:04:42;;;;;;;22.80;17.40;;;4.10;99.20;;;;;;5067820;28;20249;-72
2022/03/20 04:07:08;;;;;;;23.87;17.60;;;4.10;99.20;;;;;;5066866;28;20605;-72
2022/03/20 04:09:35;;;;;;;23.97;19.33;;;4.10;99.20;;;;;;5065048;28;20225;-73
2022/03/20 04:12:02;;;;;;;23.33;18.20;;;4.10;99.40;;;;;;5057878;28;20172;-72
2022/03/20 04:14:29;;;;;;;23.77;18.53;;;4.00;99.50;;;;;;5062517;28;20574;-72
2022/03/20 04:16:55;;;;;;;22.70;19.20;;;4.00;99.60;;;;;;5066611;28;20546;-71
2022/03/20 04:19:21;;;;;;;21.77;17.50;;;4.00;99.80;;;;;;5061386;28;20179;-72
2022/03/20 04:21:48;;;;;;;23.03;18.30;;;3.90;99.90;;;;;;5066273;28;20182;-72
2022/03/20 04:24:14;;;;;;;22.37;18.10;;;3.90;99.90;;;;;;5062561;28;20286;-72
2022/03/20 04:26:40;;;;;;;23.00;17.83;;;3.90;99.90;;;;;;5062411;28;20730;-72
2022/03/20 04:29:05;;;;;;;22.17;17.30;;;3.90;99.90;;;;;;5060036;28;20650;-72
2022/03/20 04:31:31;;;;;;;22.80;18.33;;;3.90;99.90;;;;;;5068101;28;20233;-72
2022/03/20 04:33:57;;;;;;;24.40;18.83;;;3.80;99.90;;;;;;5066801;28;20210;-72
2022/03/20 04:36:24;;;;;;;21.23;17.80;;;3.80;99.90;;;;;;5067735;28;20546;-71
2022/03/20 04:38:52;;;;;;;20.83;16.97;;;3.80;99.90;;;;;;5063911;28;20684;-71
2022/03/20 04:41:18;;;;;;;22.37;17.83;;;3.80;99.90;;;;;;5067361;28;20168;-70
2022/03/20 04:43:48;;;;;;;19.40;16.50;;;3.80;99.90;;;;;;5065255;28;20196;-71
2022/03/20 04:46:14;;;;;;;21.30;17.37;;;3.70;99.90;;;;;;5059583;28;20206;-71
2022/03/20 04:59:37;;;;;;;22.03;17.50;;;3.50;99.90;;;;;;5072872;28;20267;-70
2022/03/20 05:02:03;;;;;;;20.33;16.77;;;3.50;99.90;;;;;;5073874;28;20222;-71
2022/03/20 05:04:28;;;;;;;22.50;18.13;;;3.40;99.90;;;;;;5066228;28;20203;-72
2022/03/20 05:06:54;;;;;;;19.57;16.30;;;3.40;99.90;;;;;;5070889;28;20199;-72
2022/03/20 05:14:48;;;;;;;20.43;16.33;;;3.30;99.90;;;;;;5066149;28;20248;-71
2022/03/20 05:17:14;;;;;;;23.30;16.60;;;3.30;99.90;;;;;;5064647;28;20184;-72
2022/03/20 05:19:40;;;;;;;19.50;16.17;;;3.30;99.90;;;;;;5071161;28;20524;-72
2022/03/20 05:22:10;;;;;;;20.53;15.70;;;3.30;99.90;;;;;;5068203;28;20655;-72
2022/03/20 05:24:37;;;;;;;24.03;15.67;;;3.20;99.90;;;;;;5067180;28;20200;-73
2022/03/20 05:27:04;;;;;;;20.17;16.17;;;3.20;99.90;;;;;;5063341;28;20558;-73
2022/03/20 05:29:30;;;;;;;18.00;15.67;;;3.20;99.90;;;;;;5063174;28;20651;-73
2022/03/20 05:31:56;;;;;;;19.57;16.07;;;3.10;99.90;;;;;;5062516;28;20724;-73
2022/03/20 05:34:22;;;;;;;21.17;16.27;;;3.10;99.90;;;;;;5058395;28;20279;-71
2022/03/20 05:36:49;;;;;;;19.80;15.63;;;3.10;99.90;;;;;;5060675;28;20192;-71
2022/03/20 05:39:15;;;;;;;21.87;17.13;;;3.10;99.90;;;;;;5056329;28;20716;-72
2022/03/20 05:41:47;;;;;;;20.40;16.37;;;3.10;99.90;;;;;;5058398;28;20220;-72
2022/03/20 05:44:20;;;;;;;20.37;16.23;;;3.10;99.90;;;;;;5059981;28;20196;-71
2022/03/20 05:46:50;;;;;;;20.67;16.87;;;3.00;99.90;;;;;;5059640;28;20684;-72
2022/03/20 05:49:17;;;;;;;18.33;16.27;;;3.10;99.90;;;;;;5057453;28;20168;-71
2022/03/20 05:51:43;;;;;;;21.83;16.57;;;3.10;99.90;;;;;;5060347;28;20530;-70
2022/03/20 05:54:09;;;;;;;22.50;17.60;;;3.10;99.90;;;;;;5068309;28;20195;-70
2022/03/20 05:59:19;;;;;;;28.47;21.50;;;3.10;99.90;;;;;;5066745;28;20198;-69
2022/03/20 06:01:44;;;;;;;29.20;23.63;;;3.00;99.90;;;;;;5060011;28;20690;-69
2022/03/20 06:04:11;;;;;;;26.40;21.47;;;3.00;99.90;;;;;;5064259;28;20206;-68
2022/03/20 06:06:37;;;;;;;28.77;22.80;;;3.00;99.90;;;;;;5060650;28;20203;-68
2022/03/20 06:09:04;;;;;;;30.87;23.13;;;3.10;99.90;;;;;;5063322;28;20202;-68
2022/03/20 06:11:30;;;;;;;29.50;23.03;;;3.00;99.90;;;;;;5061387;28;20266;-70
2022/03/20 06:13:55;;;;;;;30.60;23.90;;;3.00;99.90;;;;;;5062633;28;20394;-69
2022/03/20 06:16:23;;;;;;;31.70;23.37;;;3.10;99.90;;;;;;5061005;28;20450;-69
2022/03/20 06:18:49;;;;;;;28.60;22.83;;;3.00;99.90;;;;;;5063760;28;20190;-69
2022/03/20 06:21:15;;;;;;;30.47;23.93;;;3.10;99.90;;;;;;5059645;28;20183;-69
2022/03/20 06:23:41;;;;;;;28.03;21.57;;;3.10;99.90;;;;;;5059984;28;20202;-69
2022/03/20 06:26:08;;;;;;;28.23;22.60;;;3.20;99.90;;;;;;5067765;28;20225;-68
2022/03/20 06:28:34;;;;;;;29.60;22.63;;;3.20;99.90;;;;;;5063827;28;20705;-69
2022/03/20 06:31:00;;;;;;;30.53;24.40;;;3.20;99.90;;;;;;5061637;28;20190;-68
2022/03/20 06:33:26;;;;;;;26.37;22.33;;;3.30;99.90;;;;;;5061151;28;20554;-70
2022/03/20 06:35:52;;;;;;;28.13;22.40;;;3.40;99.90;;;;;;5065530;28;20309;-70
2022/03/20 06:38:19;;;;;;;30.10;22.73;;;3.40;99.90;;;;;;5060739;28;20255;-69
2022/03/20 06:40:44;;;;;;;29.10;22.30;;;3.40;99.90;;;;;;5062573;28;20179;-71
2022/03/20 06:43:10;;;;;;;28.70;23.07;;;3.50;99.90;;;;;;5069029;28;20638;-71
2022/03/20 06:45:37;;;;;;;31.20;23.73;;;3.60;99.90;;;;;;5078552;28;20645;-72
2022/03/20 06:48:03;;;;;;;31.83;22.87;;;3.60;99.90;;;;;;5062336;28;20775;-72
2022/03/20 06:50:29;;;;;;;29.13;22.20;;;3.60;99.90;;;;;;5060859;28;20192;-72
2022/03/20 06:53:01;;;;;;;30.03;23.63;;;3.70;99.90;;;;;;5074234;28;20187;-72
2022/03/20 06:55:26;;;;;;;30.67;24.10;;;3.80;99.90;;;;;;5067668;28;20214;-72
2022/03/20 06:57:52;;;;;;;28.47;22.03;;;3.90;99.90;;;;;;5066198;28;20176;-72
2022/03/20 07:00:18;;;;;;;23.90;19.37;;;4.00;99.90;;;;;;5065806;28;20187;-72
2022/03/20 07:02:44;;;;;;;22.40;17.63;;;4.10;99.90;;;;;;5066842;28;20263;-72
2022/03/20 07:05:09;;;;;;;19.23;16.07;;;4.20;99.90;;;;;;5065258;28;20690;-75
2022/03/20 07:07:35;;;;;;;18.43;14.10;;;4.40;99.90;;;;;;5066413;28;20231;-74
2022/03/20 07:10:02;;;;;;;16.20;14.07;;;4.50;99.90;;;;;;5066777;28;20256;-72
2022/03/20 07:12:28;;;;;;;15.77;13.10;;;4.70;99.90;;;;;;5066184;28;20543;-74
2022/03/20 07:14:55;;;;;;;16.50;12.70;;;4.90;99.90;;;;;;5067822;28;20204;-74
2022/03/20 07:17:21;;;;;;;15.70;13.03;;;5.10;99.90;;;;;;5066133;28;20175;-75
2022/03/20 07:19:47;;;;;;;14.47;12.47;;;5.30;99.10;;;;;;5068138;28;20175;-75
2022/03/20 07:22:14;;;;;;;16.33;13.03;;;5.50;98.40;;;;;;5066866;28;20211;-74
2022/03/20 07:24:42;;;;;;;13.73;12.33;;;5.70;97.30;;;;;;5066781;28;20198;-74
2022/03/20 07:29:53;;;;;;;16.77;13.03;;;6.00;95.40;;;;;;5069924;28;20224;-74
2022/03/20 07:32:19;;;;;;;14.50;12.83;;;6.10;94.00;;;;;;5061713;28;20266;-73
2022/03/20 07:34:45;;;;;;;16.87;12.17;;;6.20;93.20;;;;;;5065865;28;20190;-73
2022/03/20 07:37:16;;;;;;;16.43;13.00;;;6.40;92.80;;;;;;5072944;28;20183;-73
2022/03/20 07:39:51;;;;;;;16.47;12.10;;;6.50;91.60;;;;;;5070621;28;20639;-73
2022/03/20 07:42:18;;;;;;;15.33;12.83;;;6.60;91.10;;;;;;5063933;28;20660;-73
2022/03/20 07:44:45;;;;;;;16.40;12.37;;;6.70;90.50;;;;;;5067134;28;20333;-71
2022/03/20 07:47:22;;;;;;;13.80;11.67;;;6.90;89.30;;;;;;5062950;28;20222;-73
2022/03/20 07:49:49;;;;;;;14.90;12.93;;;7.00;88.40;;;;;;5056011;28;20550;-73
2022/03/20 07:52:16;;;;;;;14.23;12.77;;;7.00;86.50;;;;;;5056741;28;20234;-73
2022/03/20 07:54:42;;;;;;;19.10;13.40;;;7.10;85.50;;;;;;5066220;28;20206;-73
2022/03/20 07:57:08;;;;;;;15.97;12.33;;;7.10;86.20;;;;;;5059504;28;20184;-73
2022/03/20 07:59:34;;;;;;;15.47;12.27;;;7.20;85.10;;;;;;5069047;28;20187;-72
2022/03/20 08:02:01;;;;;;;15.90;12.43;;;7.30;85.20;;;;;;5072272;28;20557;-71
2022/03/20 08:04:27;;;;;;;12.57;11.27;;;7.40;84.10;;;;;;5063087;28;20249;-70
2022/03/20 08:06:52;;;;;;;15.23;12.10;;;7.50;83.70;;;;;;5061843;28;20223;-72
2022/03/20 08:09:18;;;;;;;12.88;11.25;;;7.60;83.60;;;;;;5085394;28;20223;-72
2022/03/20 08:11:43;;;;;;;13.02;10.75;;;7.70;81.20;;;;;;5063668;28;20183;-72
2022/03/20 08:14:09;;;;;;;14.25;11.18;;;7.70;80.30;;;;;;5063300;28;20200;-72
2022/03/20 08:16:38;;;;;;;14.20;11.38;;;7.80;80.10;;;;;;5063578;28;20187;-72
2022/03/20 08:19:05;;;;;;;13.80;12.38;;;7.90;79.80;;;;;;5061834;28;20580;-72
2022/03/20 08:21:34;;;;;;;13.75;12.00;;;7.90;78.40;;;;;;5063329;28;20183;-72
2022/03/20 08:24:03;;;;;;;12.80;11.43;;;8.00;78.20;;;;;;5062849;28;20676;-71
2022/03/20 08:26:31;;;;;;;14.63;11.65;;;8.10;78.30;;;;;;5066607;28;20280;-71
2022/03/20 08:28:59;;;;;;;13.60;11.90;;;8.10;77.20;;;;;;5063087;28;20440;-72
2022/03/20 08:31:25;;;;;;;14.82;11.13;;;8.20;76.30;;;;;;5062479;28;20610;-72
2022/03/20 08:33:50;;;;;;;11.67;10.50;;;8.30;76.30;;;;;;5057413;28;20250;-73
2022/03/20 08:36:16;;;;;;;17.10;11.77;;;8.30;75.20;;;;;;5059919;28;20683;-78
2022/03/20 08:38:41;;;;;;;14.55;11.10;;;8.40;75.40;;;;;;5075583;28;20204;-76
2022/03/20 08:41:07;;;;;;;12.85;11.52;;;8.50;75.10;;;;;;5067464;28;20240;-76
2022/03/20 08:43:33;;;;;;;12.77;11.40;;;8.50;73.50;;;;;;5063146;28;20186;-74
2022/03/20 08:45:58;;;;;;;12.32;11.02;;;8.60;74.00;;;;;;5057115;28;20540;-73
2022/03/20 08:48:24;;;;;;;14.07;11.68;;;8.70;73.50;;;;;;5063495;28;20182;-74
2022/03/20 08:50:50;;;;;;;14.35;12.25;;;8.90;73.00;;;;;;5057710;28;20541;-74
2022/03/20 08:53:19;;;;;;;13.90;12.40;;;9.10;72.20;;;;;;5066657;28;20217;-73
2022/03/20 08:55:47;;;;;;;11.80;10.60;;;9.20;71.40;;;;;;5060940;28;20214;-74
2022/03/20 08:58:13;;;;;;;11.77;10.57;;;9.60;71.00;;;;;;5059976;28;20179;-73
2022/03/20 09:00:39;;;;;;;11.80;10.60;;;10.80;68.00;;;;;;5065782;28;20178;-75
2022/03/20 09:03:05;;;;;;;12.10;10.90;;;13.00;63.00;;;;;;5058353;28;20640;-75
2022/03/20 09:05:31;;;;;;;12.40;11.20;;;15.20;56.30;;;;;;5060163;28;20219;-75
2022/03/20 09:07:57;;;;;;;12.45;10.77;;;17.00;51.30;;;;;;5061055;28;20279;-72
2022/03/20 09:10:24;;;;;;;12.48;11.02;;;17.60;48.60;;;;;;5064854;28;20172;-74
2022/03/20 09:12:50;;;;;;;11.93;10.25;;;18.20;47.30;;;;;;5054906;28;21014;-74
2022/03/20 09:15:17;;;;;;;12.90;11.57;;;18.50;44.90;;;;;;5067201;28;20192;-74
2022/03/20 09:20:32;;;;;;;12.27;10.90;;;17.80;44.80;;;;;;5066109;28;20191;-74
2022/03/20 09:22:57;;;;;;;12.68;10.75;;;16.80;46.00;;;;;;5066059;28;20207;-74
2022/03/20 09:25:24;;;;;;;12.50;11.18;;;17.10;46.80;;;;;;5067369;28;20249;-74
2022/03/20 09:27:51;;;;;;;12.70;11.00;;;18.80;44.70;;;;;;5066305;28;20271;-74
2022/03/20 09:30:17;;;;;;;12.13;11.00;;;20.60;42.30;;;;;;5064353;28;20182;-75
2022/03/20 09:32:43;;;;;;;12.38;10.85;;;21.50;40.10;;;;;;5065147;28;20621;-76
2022/03/20 09:35:09;;;;;;;11.65;10.65;;;22.20;38.70;;;;;;5067538;28;20195;-75
2022/03/20 09:37:35;;;;;;;11.38;10.23;;;23.10;37.80;;;;;;5063220;28;20300;-75
2022/03/20 09:40:04;;;;;;;13.00;11.77;;;23.90;36.80;;;;;;5067331;28;20202;-72
2022/03/20 09:42:30;;;;;;;12.07;10.82;;;24.40;36.30;;;;;;5064646;28;20744;-70
2022/03/20 09:44:59;;;;;;;11.77;10.73;;;24.70;35.30;;;;;;5071833;28;20202;-74
2022/03/20 09:47:26;;;;;;;12.18;10.75;;;24.60;34.60;;;;;;5063190;28;20214;-73
2022/03/20 09:49:53;;;;;;;10.93;9.48;;;25.00;34.70;;;;;;5074807;28;20182;-72
2022/03/20 09:52:19;;;;;;;11.32;10.20;;;25.50;34.00;;;;;;5071272;28;20175;-72
2022/03/20 09:54:46;;;;;;;12.18;11.00;;;26.30;33.90;;;;;;5071195;28;20287;-73
2022/03/20 09:57:12;;;;;;;11.65;10.65;;;25.90;32.40;;;;;;5068692;28;20658;-73
2022/03/20 09:59:40;;;;;;;12.38;11.07;;;25.20;33.20;;;;;;5071618;28;20705;-74
2022/03/20 10:02:08;;;;;;;12.13;11.05;;;25.40;33.00;;;;;;5063387;28;20238;-75
2022/03/20 10:04:51;;;;;;;10.68;9.77;;;25.80;32.60;;;;;;5066998;28;20210;-75
2022/03/20 10:07:21;;;;;;;10.15;9.25;;;25.90;32.40;;;;;;5065821;28;20210;-76
2022/03/20 10:10:05;;;;;;;11.30;10.30;;;26.70;31.90;;;;;;5070522;28;20189;-75
2022/03/20 10:12:35;;;;;;;11.77;10.73;;;27.30;31.30;;;;;;5069029;28;20182;-78
2022/03/20 10:15:02;;;;;;;11.02;10.02;;;27.00;30.60;;;;;;5061009;28;20578;-78
2022/03/20 10:17:28;;;;;;;11.23;10.13;;;27.50;31.30;;;;;;5069986;28;20183;-75
2022/03/20 10:20:16;;;;;;;11.13;9.82;;;28.10;30.60;;;;;;5068575;28;20277;-73
2022/03/20 10:22:42;;;;;;;10.68;9.77;;;28.90;30.00;;;;;;5057278;28;20350;-74
2022/03/20 10:25:11;;;;;;;12.25;11.15;;;28.80;29.80;;;;;;5056874;28;20665;-74
2022/03/20 10:27:39;;;;;;;11.63;10.43;;;28.50;29.50;;;;;;5060612;28;20215;-74
2022/03/20 10:30:08;;;;;;;14.02;10.63;;;28.70;29.40;;;;;;5061913;28;20417;-73
2022/03/20 10:32:35;;;;;;;12.45;11.25;;;28.30;29.30;;;;;;5069739;28;20194;-75
2022/03/20 10:35:09;;;;;;;12.13;11.02;;;28.50;29.80;;;;;;5064648;28;20191;-75
2022/03/20 10:37:57;;;;;;;12.18;11.07;;;28.80;29.60;;;;;;5064482;28;20175;-74
2022/03/20 10:40:28;;;;;;;10.95;9.95;;;29.60;29.20;;;;;;5067516;28;20188;-74
2022/03/20 10:43:14;;;;;;;11.68;10.65;;;30.20;28.30;;;;;;5064076;28;20171;-77
2022/03/20 10:45:50;;;;;;;10.70;9.70;;;30.10;28.30;;;;;;5072469;28;20278;-75
2022/03/20 10:48:21;;;;;;;11.82;10.82;;;30.20;28.30;;;;;;5067526;28;20237;-76
2022/03/20 10:50:48;;;;;;;11.85;10.80;;;29.40;29.00;;;;;;5071744;28;20181;-75
2022/03/20 10:53:13;;;;;;;11.10;9.63;;;29.20;28.80;;;;;;5062805;28;20172;-72
2022/03/20 10:55:39;;;;;;;10.98;9.95;;;29.40;28.70;;;;;;5068876;28;20194;-73
2022/03/20 10:58:22;;;;;;;10.95;9.95;;;30.00;28.30;;;;;;5068300;28;20677;-73
2022/03/20 11:00:48;;;;;;;10.77;9.88;;;30.50;27.70;;;;;;5059866;28;20190;-73
2022/03/20 11:03:19;;;;;;;10.65;9.68;;;30.60;28.10;;;;;;5062449;28;20188;-73
2022/03/20 11:05:45;;;;;;;10.82;9.88;;;30.20;28.20;;;;;;5069261;28;20526;-73
2022/03/20 11:08:11;;;;;;;10.65;9.60;;;30.70;27.50;;;;;;5060056;28;20729;-74
2022/03/20 11:10:37;;;;;;;10.68;9.68;;;31.60;27.50;;;;;;5060560;28;20180;-73
2022/03/20 11:13:04;;;;;;;11.90;10.90;;;32.20;26.60;;;;;;5063034;28;20175;-73
2022/03/20 11:15:32;;;;;;;10.45;9.65;;;31.90;26.80;;;;;;5068779;28;20187;-73
2022/03/20 11:17:59;;;;;;;10.70;9.75;;;31.90;26.80;;;;;;5059399;28;20385;-72
2022/03/20 11:20:29;;;;;;;11.32;10.35;;;32.00;27.30;;;;;;5060205;28;20562;-72
2022/03/20 11:22:59;;;;;;;10.90;9.88;;;32.00;26.80;;;;;;5060835;28;20183;-72
2022/03/20 11:25:26;;;;;;;11.00;10.00;;;31.90;27.00;;;;;;5059166;28;20239;-72
2022/03/20 11:27:55;;;;;;;10.55;9.60;;;32.10;26.90;;;;;;5063872;28;20205;-73
2022/03/20 11:30:27;;;;;;;9.55;8.75;;;32.90;26.90;;;;;;5064631;28;20197;-74
2022/03/20 11:32:56;;;;;;;9.95;9.15;;;32.80;26.50;;;;;;5061467;28;20236;-74
2022/03/20 11:35:28;;;;;;;9.85;9.05;;;32.70;26.20;;;;;;5064725;28;20196;-74
2022/03/20 11:37:59;;;;;;;11.35;10.27;;;32.10;26.70;;;;;;5067592;28;20179;-74
2022/03/20 11:40:26;;;;;;;10.95;10.02;;;32.40;26.30;;;;;;5061254;28;20266;-73
2022/03/20 11:43:11;;;;;;;10.80;9.75;;;32.60;26.50;;;;;;5064838;28;20262;-72
2022/03/20 11:45:37;;;;;;;9.57;8.77;;;31.90;26.20;;;;;;5066118;28;20206;-73
2022/03/20 11:48:16;;;;;;;10.18;9.27;;;31.50;26.80;;;;;;5068875;28;20573;-71
2022/03/20 11:50:43;;;;;;;10.93;10.05;;;32.40;27.00;;;;;;5068468;28;20170;-71
2022/03/20 11:53:10;;;;;;;10.77;9.68;;;32.60;26.20;;;;;;5067920;28;20221;-69
2022/03/20 11:55:50;;;;;;;10.93;9.98;;;33.10;25.80;;;;;;5067563;28;20192;-70
2022/03/20 11:58:23;;;;;;;10.73;9.70;;;31.10;26.70;;;;;;5056969;28;20259;-70
2022/03/20 12:01:05;;;;;;;10.88;9.60;;;31.40;27.30;;;;;;5061840;28;20181;-71
2022/03/20 12:03:53;;;;;;;10.05;9.15;;;32.60;26.90;;;;;;5067304;28;20171;-71
2022/03/20 12:06:30;;;;;;;10.57;9.68;;;33.70;26.60;;;;;;5063321;28;20294;-70
2022/03/20 12:09:22;;;;;;;10.43;9.63;;;33.90;25.80;;;;;;5064471;28;20186;-70
2022/03/20 12:12:09;;;;;;;10.40;9.45;;;33.60;26.00;;;;;;5065332;28;20688;-70
2022/03/20 12:14:46;;;;;;;10.93;9.82;;;32.70;25.90;;;;;;5064570;28;20230;-70
2022/03/20 12:17:12;;;;;;;10.38;9.57;;;32.30;26.30;;;;;;5069165;28;20231;-70
2022/03/20 12:19:49;;;;;;;10.52;9.63;;;32.60;26.20;;;;;;5065298;28;20186;-71
2022/03/20 12:22:20;;;;;;;10.85;9.95;;;32.10;25.90;;;;;;5061641;28;20555;-70
2022/03/20 12:24:53;;;;;;;10.50;9.60;;;30.50;26.60;;;;;;5067034;28;20195;-70
2022/03/20 12:27:24;;;;;;;11.27;10.15;;;30.70;27.50;;;;;;5059905;28;20208;-71
2022/03/20 12:30:01;;;;;;;10.02;9.23;;;31.00;27.50;;;;;;5061498;28;20182;-71
2022/03/20 12:32:47;;;;;;;10.15;9.32;;;31.90;26.80;;;;;;5064829;28;20172;-71
2022/03/20 12:35:18;;;;;;;10.90;9.90;;;31.80;26.70;;;;;;5064464;28;20298;-71
2022/03/20 12:37:44;;;;;;;9.77;8.82;;;32.80;26.30;;;;;;5064109;28;20197;-70
2022/03/20 12:40:18;;;;;;;9.23;8.52;;;32.60;26.00;;;;;;5065331;28;20650;-70
2022/03/20 12:42:58;;;;;;;8.90;8.20;;;32.30;26.20;;;;;;5058844;28;20265;-71
2022/03/20 12:45:26;;;;;;;9.93;9.13;;;32.10;25.80;;;;;;5067901;28;20729;-71
2022/03/20 12:48:03;;;;;;;9.60;8.80;;;31.90;25.90;;;;;;5064248;28;20581;-71
2022/03/20 12:50:35;;;;;;;10.88;9.98;;;30.90;25.90;;;;;;5069528;28;20225;-71
2022/03/20 12:53:04;;;;;;;10.27;9.27;;;29.60;26.90;;;;;;5063065;28;20187;-71
2022/03/20 12:55:30;;;;;;;9.45;8.65;;;29.60;27.50;;;;;;5064708;28;20191;-71
2022/03/20 12:57:56;;;;;;;9.55;8.65;;;29.90;27.70;;;;;;5063977;28;20183;-71
2022/03/20 13:00:25;;;;;;;9.98;9.07;;;30.00;27.00;;;;;;5058746;28;20184;-71
2022/03/20 13:03:14;;;;;;;10.32;9.43;;;29.80;27.20;;;;;;5064619;28;20180;-72
2022/03/20 13:06:00;;;;;;;10.00;9.13;;;30.30;27.40;;;;;;5068436;28;20201;-71
2022/03/20 13:08:43;;;;;;;9.57;8.68;;;29.90;26.50;;;;;;5061210;28;20179;-71
2022/03/20 13:11:48;;;;;;;9.80;9.00;;;29.30;26.70;;;;;;5063499;28;20187;-71
2022/03/20 13:14:15;;;;;;;8.18;7.55;;;29.00;26.90;;;;;;5068802;28;20212;-71